You are not logged in, Click here to log in
機場資訊:TNCM Welcome to Taiwan Airways 台灣虛擬航空
ICAO: TNCM Country: 加勒比海聖馬丁島荷屬部分
Latitude: 18.0419 Longitude: -63.1131
Total Arrivals: 23 Total Departures: 17
Latest Arrival: AA1376 (KMIA-TNCM)Arthur. Kung Latest Departure: A224860 (TNCM-KMIA)Arthur. Kung
Scenery:
METAR : TNCM 171300Z 05006KT 020V090 9999 FEW018 30/23 Q1016 NOSIG

朱麗安娜公主國際機場SXM